Time;durP1;ratioP1;P1;durP2;ratioP2;P2;SDS_P1;SDS_P2;PMS_P1;PMS_P2;Temp;Humidity;BMP_temperature;BMP_pressure;BME280_temperature;BME280_humidity;BME280_pressure;Samples;Min_cycle;Max_cycle;Signal;HPM_P1;HPM_P2
2021/05/11 00:00:27;;;;;;;7.75;4.80;;;;;;;14.50;79.39;100371.78;4988093;28;20206;-84
2021/05/11 00:02:53;;;;;;;7.97;4.90;;;;;;;14.47;80.03;100374.84;4992970;28;20066;-81
2021/05/11 00:05:18;;;;;;;6.28;4.35;;;;;;;14.41;80.65;100371.09;4990992;28;20049;-84
2021/05/11 00:07:43;;;;;;;7.03;5.00;;;;;;;14.40;80.13;100372.13;4991537;28;20046;-80
2021/05/11 00:10:09;;;;;;;7.55;4.80;;;;;;;14.34;80.54;100359.44;4957132;28;20100;-81
2021/05/11 00:12:35;;;;;;;7.45;4.85;;;;;;;14.37;80.65;100358.19;4992627;28;20126;-83
2021/05/11 00:15:01;;;;;;;8.60;5.32;;;;;;;14.39;80.17;100358.84;4990306;28;20117;-84
2021/05/11 00:17:26;;;;;;;6.45;4.75;;;;;;;14.38;80.55;100357.16;4992019;28;20038;-82
2021/05/11 00:19:52;;;;;;;6.57;4.80;;;;;;;14.38;80.54;100363.38;4987492;28;20042;-79
2021/05/11 00:22:17;;;;;;;7.47;5.05;;;;;;;14.40;80.12;100372.13;4989738;28;20046;-84
2021/05/11 00:24:49;;;;;;;7.15;5.32;;;;;;;14.38;80.42;100366.06;4991597;28;20068;-84
2021/05/11 00:27:14;;;;;;;6.93;5.00;;;;;;;14.37;80.41;100369.00;4994031;28;20038;-81
2021/05/11 00:29:40;;;;;;;8.23;5.53;;;;;;;14.35;80.83;100366.47;4989320;28;20546;-82
2021/05/11 00:32:05;;;;;;;8.25;5.72;;;;;;;14.38;80.65;100370.66;4952950;28;20074;-78
2021/05/11 00:34:31;;;;;;;8.20;5.60;;;;;;;14.38;80.33;100370.66;4968368;28;20041;-81
2021/05/11 00:36:56;;;;;;;7.13;5.32;;;;;;;14.39;80.46;100369.63;4987565;28;20117;-88
2021/05/11 00:39:21;;;;;;;10.52;6.55;;;;;;;14.39;80.56;100372.34;4987817;28;20058;-79
2021/05/11 00:41:47;;;;;;;8.40;6.15;;;;;;;14.39;80.10;100372.34;4991213;28;20464;-80
2021/05/11 00:44:23;;;;;;;7.55;5.80;;;;;;;14.42;80.27;100377.34;4982198;28;20062;-89
2021/05/11 00:47:00;;;;;;;7.57;5.90;;;;;;;14.42;80.27;100377.34;4976784;28;20057;-84
2021/05/11 00:49:26;;;;;;;7.32;5.63;;;;;;;14.43;79.95;100379.00;4981011;28;20042;-82
2021/05/11 00:51:52;;;;;;;9.35;5.80;;;;;;;14.44;80.32;100375.25;4975795;28;20054;-77
2021/05/11 00:54:18;;;;;;;7.35;5.80;;;;;;;14.44;80.96;100377.94;4975958;28;20049;-83
2021/05/11 00:56:46;;;;;;;9.98;6.10;;;;;;;14.44;81.00;100384.19;4984698;28;20054;-81
2021/05/11 00:59:30;;;;;;;9.48;6.57;;;;;;;14.44;81.04;100376.09;4988514;28;20125;-82
2021/05/11 01:01:57;;;;;;;6.97;6.07;;;;;;;14.43;80.89;100379.81;4985118;28;20082;-80
2021/05/11 01:04:29;;;;;;;8.00;6.22;;;;;;;14.44;81.05;100380.63;4970425;28;20062;-81
2021/05/11 01:06:55;;;;;;;11.57;7.03;;;;;;;14.43;81.36;100384.38;4978333;28;20042;-82
2021/05/11 01:09:23;;;;;;;10.77;6.82;;;;;;;14.39;82.07;100383.97;4990304;28;20053;-85
2021/05/11 01:11:56;;;;;;;9.00;6.78;;;;;;;14.44;81.61;100400.41;4988551;28;20046;-87
2021/05/11 01:14:22;;;;;;;10.05;7.28;;;;;;;14.45;81.77;100388.56;4988072;28;20046;-85
2021/05/11 01:16:53;;;;;;;10.20;6.97;;;;;;;14.45;81.80;100390.44;4985252;28;20038;-87
2021/05/11 01:20:03;;;;;;;10.25;7.15;;;;;;;14.41;82.67;100383.75;4992797;28;20045;-84
2021/05/11 01:24:35;;;;;;;9.93;6.88;;;;;;;14.38;83.86;100389.53;4987701;28;20133;-82
2021/05/11 01:27:10;;;;;;;8.25;6.85;;;;;;;14.28;85.24;100391.78;4986192;28;20100;-83
2021/05/11 01:48:37;;;;;;;10.32;7.50;;;;;;;13.92;90.29;100400.84;4985519;28;20069;-83
2021/05/11 02:18:27;;;;;;;7.60;5.55;;;;;;;13.77;89.47;100400.94;4984511;28;20078;-81
2021/05/11 02:23:36;;;;;;;9.30;5.70;;;;;;;13.74;89.73;100396.78;4987482;28;20469;-80
2021/05/11 02:26:03;;;;;;;9.10;4.95;;;;;;;13.72;89.03;100392.59;4988165;28;20515;-79
2021/05/11 02:28:28;;;;;;;6.95;4.50;;;;;;;13.67;91.01;100395.91;4987482;28;20030;-80
2021/05/11 02:30:54;;;;;;;7.47;4.97;;;;;;;13.72;89.87;100387.22;4989337;28;20045;-81
2021/05/11 02:33:20;;;;;;;6.45;4.85;;;;;;;13.68;89.67;100391.34;4976907;28;20050;-84
2021/05/11 02:35:45;;;;;;;7.72;4.95;;;;;;;13.71;88.98;100390.94;4993700;28;20034;-84
2021/05/11 02:38:12;;;;;;;7.22;4.72;;;;;;;13.67;89.64;100393.19;4982563;28;20066;-81
2021/05/11 02:40:37;;;;;;;7.38;4.63;;;;;;;13.65;90.17;100387.16;4990429;28;20042;-86
2021/05/11 02:43:07;;;;;;;8.07;5.03;;;;;;;13.65;89.01;100381.75;4976030;28;20554;-81
2021/05/11 02:45:34;;;;;;;7.90;4.97;;;;;;;13.61;89.28;100385.88;4991662;28;20084;-82
2021/05/11 02:47:59;;;;;;;8.10;5.10;;;;;;;13.56;90.62;100391.03;5002385;28;20054;-81
2021/05/11 02:50:26;;;;;;;7.20;5.03;;;;;;;13.56;90.64;100377.53;4992855;28;20545;-83
2021/05/11 02:52:52;;;;;;;7.25;5.03;;;;;;;13.50;90.25;100372.94;4989278;28;20042;-81
2021/05/11 02:55:20;;;;;;;6.30;5.03;;;;;;;13.46;91.23;100379.72;4991321;28;20042;-83
2021/05/11 02:57:46;;;;;;;7.80;4.85;;;;;;;13.43;92.10;100380.09;4990211;28;20065;-80
2021/05/11 03:00:14;;;;;;;7.95;5.03;;;;;;;13.49;89.74;100382.88;4985749;28;20034;-85
2021/05/11 03:02:40;;;;;;;8.07;5.40;;;;;;;13.47;90.58;100381.41;4991859;28;20042;-85
2021/05/11 03:05:06;;;;;;;7.13;5.05;;;;;;;13.47;89.92;100384.94;4997069;28;20034;-80
2021/05/11 03:07:32;;;;;;;8.13;4.97;;;;;;;13.42;90.87;100379.28;4974582;28;20046;-87
2021/05/11 03:09:58;;;;;;;8.57;5.10;;;;;;;13.41;91.22;100374.09;4993120;28;20450;-80
2021/05/11 03:12:23;;;;;;;8.68;4.55;;;;;;;13.44;91.68;100379.09;4991212;28;20034;-85
2021/05/11 03:14:48;;;;;;;8.02;5.25;;;;;;;13.46;90.89;100367.06;4995550;28;20066;-83
2021/05/11 03:17:15;;;;;;;9.45;5.53;;;;;;;13.44;89.60;100357.53;4991527;28;20403;-80
2021/05/11 03:19:40;;;;;;;7.72;5.70;;;;;;;13.42;91.21;100364.97;4992005;28;20160;-85
2021/05/11 03:22:07;;;;;;;8.65;5.60;;;;;;;13.43;89.48;100362.06;4993563;28;20511;-78
2021/05/11 03:24:37;;;;;;;7.05;5.50;;;;;;;13.44;89.67;100368.31;4990571;28;20034;-85
2021/05/11 03:27:04;;;;;;;6.97;5.55;;;;;;;13.42;89.93;100364.97;4991264;28;20112;-84
2021/05/11 03:29:29;;;;;;;10.55;6.03;;;;;;;13.40;89.78;100362.47;4993439;28;20038;-86
2021/05/11 03:31:56;;;;;;;10.85;6.68;;;;;;;13.40;91.27;100369.72;4987797;28;20038;-81
2021/05/11 03:34:21;;;;;;;10.38;6.45;;;;;;;13.35;90.95;100369.44;4988168;28;20050;-81
2021/05/11 03:36:47;;;;;;;6.70;5.63;;;;;;;13.34;90.17;100374.00;4988759;28;20104;-77
2021/05/11 03:39:13;;;;;;;10.27;6.32;;;;;;;13.30;91.49;100373.56;4988678;28;20042;-78
2021/05/11 03:41:48;;;;;;;10.13;6.82;;;;;;;13.28;91.91;100372.91;4990381;28;20030;-78
2021/05/11 03:44:17;;;;;;;9.30;6.65;;;;;;;13.26;91.26;100364.22;4983513;28;20047;-87
2021/05/11 03:46:44;;;;;;;8.85;6.95;;;;;;;13.23;91.06;100356.44;4979746;28;20046;-82
2021/05/11 03:49:10;;;;;;;10.93;7.22;;;;;;;13.24;90.69;100363.53;4984079;28;20042;-87
2021/05/11 03:51:38;;;;;;;11.05;7.53;;;;;;;13.21;91.45;100363.91;4987192;28;20115;-86
2021/05/11 03:54:05;;;;;;;9.10;7.35;;;;;;;13.22;91.66;100359.34;4990226;28;20042;-85
2021/05/11 03:56:34;;;;;;;11.85;7.95;;;;;;;13.18;92.95;100353.53;4965824;28;20035;-80
2021/05/11 03:59:00;;;;;;;9.40;7.10;;;;;;;13.19;92.61;100348.97;4987279;28;20487;-81
2021/05/11 04:01:26;;;;;;;9.50;7.40;;;;;;;13.19;91.32;100352.50;4986999;28;20126;-83
2021/05/11 04:03:52;;;;;;;12.48;8.02;;;;;;;13.19;90.96;100349.78;4989674;28;20184;-83
2021/05/11 04:06:18;;;;;;;10.80;7.78;;;;;;;13.17;91.85;100356.41;4991922;28;20148;-80
2021/05/11 04:08:50;;;;;;;12.48;7.57;;;;;;;13.15;91.92;100359.31;4981413;28;20462;-78
2021/05/11 04:16:43;;;;;;;11.32;8.35;;;;;;;13.07;93.30;100365.63;4936693;28;20503;-82
2021/05/11 04:19:10;;;;;;;12.10;8.35;;;;;;;13.08;93.82;100369.16;4972231;28;20085;-85
2021/05/11 04:21:37;;;;;;;11.43;8.40;;;;;;;13.07;94.08;100362.09;4972038;28;20069;-81
2021/05/11 04:24:03;;;;;;;10.68;7.70;;;;;;;13.08;94.35;100369.97;4989365;28;20130;-81
2021/05/11 04:26:29;;;;;;;12.88;8.23;;;;;;;13.07;93.66;100364.81;4987400;28;20078;-84
2021/05/11 04:28:54;;;;;;;11.98;8.30;;;;;;;13.10;93.54;100361.72;4989604;28;20077;-85
2021/05/11 04:31:20;;;;;;;9.55;7.68;;;;;;;13.09;93.32;100366.28;4990063;28;20053;-80
2021/05/11 04:33:46;;;;;;;11.07;8.45;;;;;;;13.06;94.66;100369.38;4988365;28;20038;-81
2021/05/11 04:36:13;;;;;;;12.55;8.60;;;;;;;13.10;93.83;100361.72;4990361;28;20129;-81
2021/05/11 04:38:39;;;;;;;11.48;8.40;;;;;;;13.11;94.04;100360.69;4984097;28;20038;-81
2021/05/11 04:41:06;;;;;;;12.38;8.13;;;;;;;13.12;93.37;100365.06;4987981;28;20045;-82
2021/05/11 04:43:34;;;;;;;10.90;7.97;;;;;;;13.13;93.56;100365.91;4989807;28;20387;-83
2021/05/11 04:46:44;;;;;;;10.88;8.70;;;;;;;13.11;94.62;100363.38;4993277;28;20046;-85
2021/05/11 04:48:49;;;;;;;11.13;8.90;;;;;;;13.12;93.53;100359.69;4986009;28;20038;-80
2021/05/11 04:51:17;;;;;;;12.98;9.43;;;;;;;13.11;93.57;100355.31;4992664;28;20121;-77
2021/05/11 04:53:43;;;;;;;16.52;10.15;;;;;;;13.10;94.68;100349.09;4971336;28;20475;-85
2021/05/11 04:56:08;;;;;;;15.43;11.18;;;;;;;13.14;94.15;100354.09;4974130;28;20049;-84
2021/05/11 04:58:34;;;;;;;14.32;10.70;;;;;;;13.18;92.87;100352.69;4984967;28;20044;-82
2021/05/11 05:01:05;;;;;;;14.13;10.30;;;;;;;13.19;94.26;100354.34;4984828;28;20132;-84
2021/05/11 05:03:37;;;;;;;15.05;11.32;;;;;;;13.19;93.59;100343.56;4983360;28;20040;-83
2021/05/11 05:06:03;;;;;;;15.13;11.57;;;;;;;13.18;94.92;100353.53;4987404;28;20431;-78
2021/05/11 05:08:28;;;;;;;14.25;10.98;;;;;;;13.17;96.02;100351.84;4988898;28;20043;-83
2021/05/11 05:10:54;;;;;;;15.35;10.85;;;;;;;13.17;95.28;100362.63;4982010;28;20049;-81
2021/05/11 05:13:21;;;;;;;15.98;11.55;;;;;;;13.23;94.31;100369.94;4987322;28;20038;-81
2021/05/11 05:15:57;;;;;;;17.25;11.38;;;;;;;13.25;95.40;100380.53;4986529;28;20376;-84
2021/05/11 05:18:23;;;;;;;16.02;11.90;;;;;;;13.24;95.09;100378.88;4997796;28;20030;-80
2021/05/11 05:20:51;;;;;;;14.55;12.13;;;;;;;13.21;95.73;100380.09;4986495;28;20121;-81
2021/05/11 05:23:18;;;;;;;15.60;12.32;;;;;;;13.23;95.24;100378.00;4981891;28;20046;-81
2021/05/11 05:25:52;;;;;;;14.73;10.38;;;;;;;13.20;97.40;100374.88;4985045;28;20133;-80
2021/05/11 05:28:17;;;;;;;13.30;10.57;;;;;;;13.21;97.11;100380.09;4979719;28;20046;-85
2021/05/11 05:30:42;;;;;;;14.20;10.25;;;;;;;13.22;97.93;100378.22;4990587;28;20101;-83
2021/05/11 05:33:08;;;;;;;13.65;10.25;;;;;;;13.24;97.02;100379.69;4991724;28;20050;-81
2021/05/11 05:35:33;;;;;;;15.18;11.07;;;;;;;13.29;97.22;100377.31;4989640;28;20228;-85
2021/05/11 05:37:59;;;;;;;14.23;10.65;;;;;;;13.27;99.14;100378.50;4983786;28;20058;-81
2021/05/11 05:40:26;;;;;;;14.23;10.18;;;;;;;13.29;97.26;100377.31;4983233;28;20049;-83
2021/05/11 05:42:54;;;;;;;14.23;9.68;;;;;;;13.32;97.84;100382.31;4986553;28;20070;-84
2021/05/11 05:45:20;;;;;;;12.05;9.98;;;;;;;13.35;97.19;100388.31;4985164;28;20051;-81
2021/05/11 05:47:52;;;;;;;12.90;10.25;;;;;;;13.36;98.20;100387.31;4980939;28;20046;-84
2021/05/11 05:50:23;;;;;;;14.57;9.52;;;;;;;13.40;97.62;100388.59;4979632;28;20149;-83
2021/05/11 05:52:53;;;;;;;13.05;10.32;;;;;;;13.38;98.08;100390.63;4968787;28;20146;-78
2021/05/11 05:55:18;;;;;;;11.90;10.40;;;;;;;13.39;98.44;100381.53;4978960;28;20078;-79
2021/05/11 05:57:44;;;;;;;16.20;10.18;;;;;;;13.37;99.17;100383.56;4984638;28;20049;-79
2021/05/11 06:00:12;;;;;;;15.30;10.63;;;;;;;13.41;97.90;100390.28;4981899;28;20054;-84
2021/05/11 06:02:44;;;;;;;14.55;11.20;;;;;;;13.44;97.94;100395.28;4980665;28;20506;-83
2021/05/11 06:05:11;;;;;;;15.77;11.80;;;;;;;13.45;98.38;100397.75;4958648;28;20050;-87
2021/05/11 06:07:38;;;;;;;13.95;10.52;;;;;;;13.40;98.36;100394.78;4988543;28;20050;-83
2021/05/11 06:10:05;;;;;;;12.70;10.07;;;;;;;13.36;100.00;100395.41;4988069;28;20108;-82
2021/05/11 06:12:40;;;;;;;17.08;12.15;;;;;;;13.39;97.60;100400.41;4985119;28;20046;-82
2021/05/11 06:17:35;;;;;;;17.15;10.13;;;;;;;13.42;100.00;100406.22;4986589;28;20042;-79
2021/05/11 06:20:01;;;;;;;15.70;10.43;;;;;;;13.44;99.22;100406.88;4982988;28;20057;-82
2021/05/11 06:22:26;;;;;;;16.02;10.50;;;;;;;13.47;99.66;100406.50;4992848;28;20684;-81
2021/05/11 06:24:52;;;;;;;14.98;11.43;;;;;;;13.54;97.63;100399.28;4996746;28;20049;-79
2021/05/11 06:27:18;;;;;;;12.63;10.80;;;;;;;13.50;98.59;100405.28;4990809;28;20129;-84
2021/05/11 06:29:45;;;;;;;16.77;11.02;;;;;;;13.59;96.39;100397.91;4990604;28;20038;-80
2021/05/11 06:32:11;;;;;;;17.10;11.30;;;;;;;13.59;98.00;100398.72;4989983;28;20066;-81
2021/05/11 06:34:47;;;;;;;15.07;10.90;;;;;;;13.59;96.10;100396.03;4998189;28;20124;-84
2021/05/11 06:37:13;;;;;;;14.30;10.43;;;;;;;13.57;95.92;100403.47;4958655;28;20089;-82
2021/05/11 06:39:43;;;;;;;14.23;10.98;;;;;;;13.65;96.32;100408.72;4985200;28;20038;-83
2021/05/11 06:42:08;;;;;;;12.60;10.27;;;;;;;13.69;96.92;100403.78;4984050;28;20383;-80
2021/05/11 06:44:59;;;;;;;14.43;10.80;;;;;;;13.72;97.59;100406.09;4987419;28;20035;-81
2021/05/11 06:55:18;;;;;;;14.43;10.57;;;;;;;13.79;95.69;100393.50;4984201;28;20418;-82
2021/05/11 06:57:43;;;;;;;15.05;11.82;;;;;;;13.88;96.36;100391.50;4984593;28;20046;-85
2021/05/11 07:00:09;;;;;;;15.85;11.05;;;;;;;13.90;95.57;100384.06;4986664;28;20766;-79
2021/05/11 07:02:35;;;;;;;13.40;11.00;;;;;;;14.00;95.89;100384.53;4986607;28;20042;-83
2021/05/11 07:05:00;;;;;;;13.55;10.45;;;;;;;14.01;94.73;100380.78;4970878;28;20050;-79
2021/05/11 07:07:26;;;;;;;14.13;10.95;;;;;;;14.10;95.54;100379.63;4999016;28;20047;-82
2021/05/11 07:15:03;;;;;;;16.25;11.02;;;;;;;14.19;94.47;100380.31;4985302;28;20130;-80
2021/05/11 07:17:28;;;;;;;13.60;10.90;;;;;;;14.23;94.43;100379.69;4989592;28;20042;-86
2021/05/11 07:19:55;;;;;;;13.32;10.40;;;;;;;14.25;93.96;100384.09;4987461;28;20402;-80
2021/05/11 07:22:21;;;;;;;14.70;10.98;;;;;;;14.29;94.17;100372.69;4987933;28;20046;-81
2021/05/11 07:24:48;;;;;;;16.30;11.98;;;;;;;14.36;93.94;100375.44;4979219;28;20407;-81
2021/05/11 07:27:31;;;;;;;13.68;10.93;;;;;;;14.43;94.61;100373.59;4983638;28;20051;-81
2021/05/11 07:30:15;;;;;;;15.13;10.18;;;;;;;14.45;93.64;100376.94;5001244;28;20623;-82
2021/05/11 07:32:42;;;;;;;18.02;10.82;;;;;;;14.50;95.56;100382.56;4988591;28;20368;-80
2021/05/11 07:35:08;;;;;;;15.80;10.60;;;;;;;14.62;94.64;100378.28;4986286;28;20049;-80
2021/05/11 07:37:33;;;;;;;14.73;10.32;;;;;;;14.65;96.19;100377.88;4986794;28;20439;-81
2021/05/11 07:40:00;;;;;;;13.48;10.50;;;;;;;14.74;95.50;100370.44;4988038;28;20034;-81
2021/05/11 07:42:25;;;;;;;16.15;11.23;;;;;;;14.77;95.39;100369.22;4985827;28;20046;-84
2021/05/11 07:44:54;;;;;;;13.50;10.13;;;;;;;14.83;94.28;100384.59;4983659;28;20090;-82
2021/05/11 07:47:30;;;;;;;14.52;10.57;;;;;;;14.86;93.49;100378.81;4979908;28;20073;-81
2021/05/11 07:50:06;;;;;;;14.43;10.38;;;;;;;14.85;93.88;100379.84;4971826;28;20443;-84
2021/05/11 08:03:25;;;;;;;13.70;9.70;;;;;;;14.99;92.81;100369.88;4976760;28;20096;-80
2021/05/11 08:16:24;;;;;;;11.20;8.13;;;;;;;15.54;90.40;100357.94;4979746;28;20156;-79
2021/05/11 08:29:39;;;;;;;11.15;8.00;;;;;;;15.87;87.27;100359.00;4983207;28;20048;-83
2021/05/11 08:32:05;;;;;;;11.05;7.72;;;;;;;15.89;86.94;100360.47;4980476;28;20399;-82
2021/05/11 08:34:30;;;;;;;11.68;8.13;;;;;;;15.88;86.21;100361.53;4988914;28;20089;-83
2021/05/11 08:36:56;;;;;;;10.20;7.50;;;;;;;15.93;86.29;100363.56;4982097;28;20030;-82
2021/05/11 08:39:22;;;;;;;10.27;7.55;;;;;;;16.02;85.97;100356.91;4980555;28;20125;-84
2021/05/11 08:41:47;;;;;;;10.93;7.50;;;;;;;16.11;85.50;100354.81;4972347;28;20557;-84
2021/05/11 08:44:14;;;;;;;10.18;6.40;;;;;;;16.16;82.56;100353.13;4986368;28;20323;-81
2021/05/11 08:46:42;;;;;;;11.40;7.60;;;;;;;16.21;83.14;100352.50;4984557;28;20137;-79
2021/05/11 08:49:12;;;;;;;12.20;9.25;;;;;;;16.43;85.37;100337.66;4985308;28;20042;-84
2021/05/11 08:51:54;;;;;;;11.65;8.98;;;;;;;16.54;82.32;100338.03;4980957;28;20034;-86
2021/05/11 09:05:51;;;;;;;17.20;15.40;;;;;;;16.73;80.99;100347.94;4969730;28;20612;-79
2021/05/11 09:08:38;;;;;;;19.08;16.35;;;;;;;16.57;82.39;100351.13;4978473;28;20063;-82
2021/05/11 09:27:56;;;;;;;5.20;4.35;;;;;;;15.75;89.07;100386.69;4989755;28;20054;-84
2021/05/11 09:59:13;;;;;;;;;;;;;;;16.29;87.08;100349.56;4985448;28;20042;-82
2021/05/11 10:48:21;;;;;;;10.13;7.90;;;;;;;16.69;83.31;100314.22;4988228;28;20039;-81
2021/05/11 10:50:58;;;;;;;8.23;7.25;;;;;;;16.51;83.58;100316.78;4985122;28;20129;-85
2021/05/11 10:53:59;;;;;;;8.45;7.57;;;;;;;16.39;84.18;100322.88;4989790;28;20050;-83
2021/05/11 10:59:23;;;;;;;8.65;7.75;;;;;;;16.36;85.82;100334.13;4991526;28;20110;-86
2021/05/11 11:02:04;;;;;;;9.05;8.15;;;;;;;16.25;86.06;100342.91;4988646;28;20047;-83
2021/05/11 11:04:43;;;;;;;9.93;8.00;;;;;;;16.19;86.13;100335.63;4943036;28;20043;-81
2021/05/11 11:07:09;;;;;;;;;;;;;;;16.20;85.86;100340.03;4988412;28;20543;-85
2021/05/11 11:09:36;;;;;;;10.82;7.70;;;;;;;16.10;86.40;100343.16;4990971;28;20021;-84
2021/05/11 11:12:05;;;;;;;9.23;7.80;;;;;;;16.02;86.11;100337.97;4988854;28;20043;-82
2021/05/11 11:14:42;;;;;;;8.73;7.57;;;;;;;15.96;85.92;100330.69;4984304;28;20045;-85
2021/05/11 11:17:13;;;;;;;12.80;8.57;;;;;;;15.93;86.23;100329.22;4987255;28;20132;-82
2021/05/11 11:19:39;;;;;;;14.32;8.68;;;;;;;15.92;85.92;100327.56;4993253;28;20034;-79
2021/05/11 11:24:58;;;;;;;12.73;8.32;;;;;;;15.89;86.81;100325.28;4989785;28;20061;-85
2021/05/11 11:27:32;;;;;;;7.85;6.78;;;;;;;15.81;86.56;100322.81;4968590;28;20042;-82
2021/05/11 11:30:09;;;;;;;8.90;7.07;;;;;;;15.79;86.28;100308.66;4991432;28;20036;-85
2021/05/11 11:32:36;;;;;;;8.43;7.53;;;;;;;15.84;85.95;100318.84;4986308;28;20125;-80
2021/05/11 11:35:03;;;;;;;9.77;8.00;;;;;;;15.83;86.75;100311.78;4990165;28;20160;-84
2021/05/11 11:37:29;;;;;;;9.20;7.68;;;;;;;15.76;86.76;100314.47;4986195;28;20112;-81
2021/05/11 11:39:59;;;;;;;8.90;7.45;;;;;;;15.69;86.19;100305.56;4979114;28;20045;-84
2021/05/11 11:42:33;;;;;;;9.15;7.65;;;;;;;15.68;86.77;100303.88;4973843;28;20042;-79
2021/05/11 11:45:01;;;;;;;8.35;7.47;;;;;;;15.69;86.96;100286.63;5006390;28;20095;-81
2021/05/11 11:47:29;;;;;;;9.02;8.13;;;;;;;15.68;87.01;100293.03;4987970;28;20051;-81
2021/05/11 11:50:02;;;;;;;8.80;7.53;;;;;;;15.69;87.16;100287.44;4986580;28;20131;-79
2021/05/11 11:53:22;;;;;;;8.10;6.82;;;;;;;15.68;86.59;100298.47;4988101;28;20517;-84
2021/05/11 11:57:55;;;;;;;6.65;5.22;;;;;;;15.66;85.86;100305.94;4989446;28;20041;-80
2021/05/11 12:00:34;;;;;;;5.53;4.65;;;;;;;15.68;86.23;100311.97;4982668;28;20403;-81
2021/05/11 12:03:10;;;;;;;4.57;3.42;;;;;;;15.63;85.44;100309.88;4983860;28;20043;-82
2021/05/11 12:05:44;;;;;;;6.13;4.03;;;;;;;15.59;85.92;100316.75;4989025;28;20050;-81
2021/05/11 12:08:28;;;;;;;4.88;3.75;;;;;;;15.54;85.43;100327.38;4999194;28;20137;-86
2021/05/11 12:11:00;;;;;;;5.22;3.83;;;;;;;15.52;85.45;100324.88;4994518;28;20053;-84
2021/05/11 12:13:31;;;;;;;4.65;3.95;;;;;;;15.48;85.91;100328.22;4992957;28;20661;-82
2021/05/11 12:16:17;;;;;;;4.70;3.80;;;;;;;15.53;86.49;100331.09;4972694;28;20054;-84
2021/05/11 12:19:14;;;;;;;4.80;4.25;;;;;;;15.54;87.11;100328.19;4987246;28;20052;-81
2021/05/11 12:22:00;;;;;;;4.78;4.28;;;;;;;15.47;87.35;100334.63;4966075;28;20049;-82
2021/05/11 12:24:30;;;;;;;4.97;4.35;;;;;;;15.52;87.34;100332.16;4971926;28;20043;-78
2021/05/11 12:27:21;;;;;;;5.43;4.50;;;;;;;15.49;87.37;100332.56;4986577;28;20046;-86
2021/05/11 12:30:16;;;;;;;5.70;4.13;;;;;;;15.50;87.50;100340.47;4974619;28;20486;-84
2021/05/11 12:32:46;;;;;;;5.63;3.95;;;;;;;15.44;87.25;100341.28;4991791;28;20050;-78
2021/05/11 12:35:16;;;;;;;5.25;4.20;;;;;;;15.44;87.23;100340.47;4984919;28;20088;-80
2021/05/11 12:37:45;;;;;;;4.28;3.70;;;;;;;15.53;87.35;100342.75;4977067;28;20073;-84
2021/05/11 12:40:25;;;;;;;4.57;4.00;;;;;;;15.58;87.30;100334.00;4979544;28;20126;-82
2021/05/11 12:42:52;;;;;;;5.45;3.70;;;;;;;15.57;87.11;100330.50;4981230;28;20042;-87
2021/05/11 12:45:17;;;;;;;6.65;3.60;;;;;;;15.48;86.16;100322.81;4985897;28;20050;-85
2021/05/11 12:47:46;;;;;;;5.15;3.80;;;;;;;15.52;87.62;100332.97;4968052;28;20045;-83
2021/05/11 12:50:24;;;;;;;5.40;3.35;;;;;;;15.51;87.20;100339.44;4977069;28;20094;-83
2021/05/11 12:52:52;;;;;;;5.13;3.60;;;;;;;15.47;87.03;100337.34;5002181;28;20122;-82
2021/05/11 12:56:01;;;;;;;4.63;3.30;;;;;;;15.43;87.32;100341.50;4988886;28;20038;-80
2021/05/11 12:59:15;;;;;;;5.47;4.18;;;;;;;15.42;87.83;100345.22;4989117;28;20086;-82
2021/05/11 13:15:44;;;;;;;6.10;5.10;;;;;;;15.28;89.20;100363.34;4990572;28;20470;-87
2021/05/11 13:21:16;;;;;;;6.07;4.13;;;;;;;15.33;87.28;100368.94;4983967;28;20053;-82
2021/05/11 13:26:33;;;;;;;5.82;3.83;;;;;;;15.27;85.82;100364.34;4979106;28;20046;-83
2021/05/11 13:29:05;;;;;;;4.95;3.97;;;;;;;15.22;86.49;100351.47;4990738;28;20092;-82
2021/05/11 13:31:40;;;;;;;6.40;4.32;;;;;;;15.18;87.17;100350.19;4989172;28;20078;-84
2021/05/11 13:34:12;;;;;;;5.80;3.67;;;;;;;15.22;86.92;100351.47;4988474;28;20069;-81
2021/05/11 13:36:43;;;;;;;7.70;3.70;;;;;;;15.30;87.33;100342.31;4990935;28;20121;-81
2021/05/11 13:39:11;;;;;;;5.72;4.00;;;;;;;15.33;86.19;100331.94;4984636;28;20101;-80
2021/05/11 13:41:38;;;;;;;5.93;4.82;;;;;;;15.36;87.10;100336.06;4989063;28;20042;-85
2021/05/11 13:44:04;;;;;;;5.25;4.70;;;;;;;15.33;87.28;100331.09;4967089;28;20063;-84
2021/05/11 13:46:30;;;;;;;4.70;4.20;;;;;;;15.24;87.28;100335.03;4986094;28;20089;-84
2021/05/11 13:48:56;;;;;;;6.60;4.78;;;;;;;15.29;87.77;100341.50;4988922;28;20062;-80
2021/05/11 13:51:21;;;;;;;7.03;4.60;;;;;;;15.26;88.34;100341.06;4984411;28;20073;-82
2021/05/11 13:53:54;;;;;;;5.75;5.05;;;;;;;15.23;88.35;100336.09;4972305;28;20038;-84
2021/05/11 14:04:18;;;;;;;7.15;6.00;;;;;;;15.16;91.96;100341.47;4987770;28;20049;-81
2021/05/11 14:06:43;;;;;;;7.43;6.63;;;;;;;15.18;92.15;100333.16;4984868;28;20046;-83
2021/05/11 14:09:09;;;;;;;7.07;6.38;;;;;;;15.12;91.90;100329.41;4963210;28;20045;-83
2021/05/11 14:11:36;;;;;;;9.45;7.20;;;;;;;15.09;93.35;100341.44;4987868;28;20414;-85
2021/05/11 14:14:02;;;;;;;8.32;7.00;;;;;;;15.09;93.56;100341.44;4974176;28;20615;-80
2021/05/11 14:16:28;;;;;;;10.52;7.93;;;;;;;15.09;93.82;100329.81;4970853;28;20038;-80
2021/05/11 14:18:54;;;;;;;10.73;7.95;;;;;;;15.06;94.11;100335.63;4987422;28;20038;-80
2021/05/11 14:21:19;;;;;;;10.48;8.40;;;;;;;15.01;94.12;100338.94;4989411;28;20093;-84
2021/05/11 14:23:45;;;;;;;9.85;8.38;;;;;;;15.06;95.02;100341.88;4988394;28;20058;-82
2021/05/11 14:26:10;;;;;;;10.90;8.25;;;;;;;15.05;95.55;100329.41;4987136;28;20158;-83
2021/05/11 14:28:36;;;;;;;9.65;8.27;;;;;;;15.03;95.44;100330.63;4986190;28;20030;-82
2021/05/11 14:31:02;;;;;;;10.02;9.02;;;;;;;15.09;96.45;100336.03;4985526;28;20402;-80
2021/05/11 14:33:27;;;;;;;7.55;6.75;;;;;;;15.05;96.06;100331.28;4975128;28;20046;-82
2021/05/11 14:35:53;;;;;;;7.57;5.82;;;;;;;15.10;95.09;100334.16;4960444;28;20080;-79
2021/05/11 14:38:18;;;;;;;6.82;5.80;;;;;;;15.01;95.00;100333.53;4988588;28;20053;-84
2021/05/11 14:40:43;;;;;;;5.88;5.20;;;;;;;14.96;95.35;100332.47;4984300;28;20388;-80
2021/05/11 14:43:09;;;;;;;6.45;5.07;;;;;;;14.94;93.56;100329.16;4991097;28;20043;-83
2021/05/11 14:45:34;;;;;;;5.30;4.80;;;;;;;14.99;94.16;100334.75;4985881;28;20549;-80
2021/05/11 14:48:00;;;;;;;6.50;5.50;;;;;;;15.02;95.59;100337.91;4962003;28;20038;-81
2021/05/11 14:50:26;;;;;;;7.82;6.10;;;;;;;15.05;96.45;100336.69;4990025;28;20061;-81
2021/05/11 14:52:54;;;;;;;7.75;6.30;;;;;;;15.00;95.79;100336.44;4989103;28;20101;-82
2021/05/11 14:55:24;;;;;;;9.38;7.53;;;;;;;15.11;98.08;100330.44;4973584;28;20069;-82
2021/05/11 14:57:54;;;;;;;8.95;6.95;;;;;;;15.09;97.50;100335.22;4999256;28;20051;-83
2021/05/11 15:00:21;;;;;;;8.88;6.70;;;;;;;15.04;93.92;100332.28;4990373;28;20038;-82
2021/05/11 15:02:46;;;;;;;7.45;6.70;;;;;;;15.05;96.78;100333.97;4988043;28;20043;-82
2021/05/11 15:05:12;;;;;;;8.98;6.40;;;;;;;15.10;96.83;100334.16;4970442;28;20046;-82
2021/05/11 15:07:38;;;;;;;9.00;6.20;;;;;;;15.07;95.57;100330.00;4988374;28;20046;-84
2021/05/11 15:10:04;;;;;;;6.80;6.13;;;;;;;15.07;95.74;100331.88;4987566;28;20057;-79
2021/05/11 15:12:30;;;;;;;7.13;6.40;;;;;;;15.05;95.21;100332.09;4991171;28;20100;-83
2021/05/11 15:14:55;;;;;;;7.78;6.75;;;;;;;15.09;95.26;100330.66;4972250;28;20042;-84
2021/05/11 15:19:46;;;;;;;6.38;5.72;;;;;;;15.11;96.02;100333.16;4986739;28;20038;-83
2021/05/11 15:22:11;;;;;;;6.85;5.70;;;;;;;15.07;95.92;100343.50;4992356;28;20038;-80
2021/05/11 15:24:37;;;;;;;6.95;6.25;;;;;;;15.06;96.05;100336.47;4974472;28;20046;-83
2021/05/11 15:27:02;;;;;;;7.25;6.35;;;;;;;15.06;95.53;100330.22;4991276;28;20070;-81
2021/05/11 15:29:27;;;;;;;8.80;6.78;;;;;;;15.04;97.84;100327.72;4984179;28;20124;-84
2021/05/11 15:31:53;;;;;;;8.75;7.40;;;;;;;14.99;98.25;100319.41;4994390;28;20057;-83
2021/05/11 15:34:18;;;;;;;8.63;7.38;;;;;;;14.93;98.83;100325.59;4945750;28;20034;-81